sensor_id;sensor_type;location;lat;lon;timestamp;pressure;altitude;pressure_sealevel;temperature
69420;BMP280;56612;52.030;113.524;2023-02-19T00:01:19;93590.91;;;-14.46
69420;BMP280;56612;52.030;113.524;2023-02-19T00:04:24;93597.22;;;-14.36
69420;BMP280;56612;52.030;113.524;2023-02-19T00:07:27;93608.47;;;-14.28
69420;BMP280;56612;52.030;113.524;2023-02-19T00:10:31;93598.91;;;-14.22
69420;BMP280;56612;52.030;113.524;2023-02-19T00:13:36;93608.97;;;-14.13
69420;BMP280;56612;52.030;113.524;2023-02-19T00:16:40;93608.53;;;-14.00
69420;BMP280;56612;52.030;113.524;2023-02-19T00:19:43;93609.25;;;-13.94
69420;BMP280;56612;52.030;113.524;2023-02-19T00:22:48;93613.47;;;-13.85
69420;BMP280;56612;52.030;113.524;2023-02-19T00:25:51;93621.88;;;-13.79
69420;BMP280;56612;52.030;113.524;2023-02-19T00:28:55;93621.47;;;-13.72
69420;BMP280;56612;52.030;113.524;2023-02-19T00:31:58;93628.94;;;-13.63
69420;BMP280;56612;52.030;113.524;2023-02-19T00:35:03;93632.66;;;-13.47
69420;BMP280;56612;52.030;113.524;2023-02-19T00:38:06;93640.19;;;-13.32
69420;BMP280;56612;52.030;113.524;2023-02-19T00:41:11;93649.31;;;-13.20
69420;BMP280;56612;52.030;113.524;2023-02-19T00:44:24;93644.63;;;-13.04
69420;BMP280;56612;52.030;113.524;2023-02-19T00:47:28;93646.72;;;-12.92
69420;BMP280;56612;52.030;113.524;2023-02-19T00:50:31;93660.72;;;-12.65
69420;BMP280;56612;52.030;113.524;2023-02-19T00:53:35;93662.53;;;-12.37
69420;BMP280;56612;52.030;113.524;2023-02-19T00:56:38;93663.03;;;-11.86
69420;BMP280;56612;52.030;113.524;2023-02-19T00:59:42;93670.50;;;-11.41
69420;BMP280;56612;52.030;113.524;2023-02-19T01:02:45;93678.22;;;-11.05
69420;BMP280;56612;52.030;113.524;2023-02-19T01:05:50;93678.66;;;-10.71
69420;BMP280;56612;52.030;113.524;2023-02-19T01:08:53;93685.38;;;-10.63
69420;BMP280;56612;52.030;113.524;2023-02-19T01:11:57;93688.03;;;-10.25
69420;BMP280;56612;52.030;113.524;2023-02-19T01:15:00;93689.75;;;-9.90
69420;BMP280;56612;52.030;113.524;2023-02-19T01:18:04;93695.41;;;-9.53
69420;BMP280;56612;52.030;113.524;2023-02-19T01:21:13;93706.41;;;-9.34
69420;BMP280;56612;52.030;113.524;2023-02-19T01:24:16;93698.84;;;-9.13
69420;BMP280;56612;52.030;113.524;2023-02-19T01:27:20;93711.66;;;-9.08
69420;BMP280;56612;52.030;113.524;2023-02-19T01:30:24;93708.66;;;-8.80
69420;BMP280;56612;52.030;113.524;2023-02-19T01:33:28;93711.59;;;-8.30
69420;BMP280;56612;52.030;113.524;2023-02-19T01:36:33;93730.19;;;-7.92
69420;BMP280;56612;52.030;113.524;2023-02-19T01:39:38;93730.53;;;-7.75
69420;BMP280;56612;52.030;113.524;2023-02-19T01:42:42;93725.69;;;-7.78
69420;BMP280;56612;52.030;113.524;2023-02-19T01:45:46;93728.84;;;-7.38
69420;BMP280;56612;52.030;113.524;2023-02-19T01:48:50;93745.66;;;-6.97
69420;BMP280;56612;52.030;113.524;2023-02-19T01:55:12;93747.31;;;-6.29
69420;BMP280;56612;52.030;113.524;2023-02-19T01:58:16;93757.59;;;-6.16
69420;BMP280;56612;52.030;113.524;2023-02-19T02:01:20;93762.63;;;-6.18
69420;BMP280;56612;52.030;113.524;2023-02-19T02:04:24;93753.59;;;-6.53
69420;BMP280;56612;52.030;113.524;2023-02-19T02:07:27;93757.34;;;-6.33
69420;BMP280;56612;52.030;113.524;2023-02-19T02:10:50;93759.56;;;-5.57
69420;BMP280;56612;52.030;113.524;2023-02-19T02:13:54;93762.63;;;-6.18
69420;BMP280;56612;52.030;113.524;2023-02-19T02:30:16;93771.03;;;-5.45
69420;BMP280;56612;52.030;113.524;2023-02-19T02:36:39;93775.63;;;-5.15
69420;BMP280;56612;52.030;113.524;2023-02-19T02:39:46;93772.69;;;-4.89
69420;BMP280;56612;52.030;113.524;2023-02-19T02:42:51;93762.88;;;-3.79
69420;BMP280;56612;52.030;113.524;2023-02-19T02:45:55;93770.31;;;-3.35
69420;BMP280;56612;52.030;113.524;2023-02-19T02:49:16;93771.78;;;-2.50
69420;BMP280;56612;52.030;113.524;2023-02-19T02:52:21;93770.09;;;-1.93
69420;BMP280;56612;52.030;113.524;2023-02-19T02:55:46;93766.66;;;-1.69
69420;BMP280;56612;52.030;113.524;2023-02-19T02:58:51;93766.25;;;-1.38
69420;BMP280;56612;52.030;113.524;2023-02-19T03:05:23;93775.31;;;-0.37
69420;BMP280;56612;52.030;113.524;2023-02-19T03:09:01;93783.50;;;0.37
69420;BMP280;56612;52.030;113.524;2023-02-19T03:12:14;93773.25;;;1.34
69420;BMP280;56612;52.030;113.524;2023-02-19T03:15:49;93789.16;;;1.36
69420;BMP280;56612;52.030;113.524;2023-02-19T03:19:15;93784.59;;;1.15
69420;BMP280;56612;52.030;113.524;2023-02-19T03:22:32;93785.13;;;1.56
69420;BMP280;56612;52.030;113.524;2023-02-19T03:25:37;93774.03;;;1.91
69420;BMP280;56612;52.030;113.524;2023-02-19T03:29:15;93777.34;;;2.48
69420;BMP280;56612;52.030;113.524;2023-02-19T03:32:51;93783.38;;;3.20
69420;BMP280;56612;52.030;113.524;2023-02-19T03:36:03;93780.78;;;3.97
69420;BMP280;56612;52.030;113.524;2023-02-19T03:39:14;93793.25;;;4.08
69420;BMP280;56612;52.030;113.524;2023-02-19T03:46:12;93768.91;;;-2.10
69420;BMP280;56612;52.030;113.524;2023-02-19T03:49:32;93769.69;;;-4.32
69420;BMP280;56612;52.030;113.524;2023-02-19T03:52:41;93761.38;;;-6.53
69420;BMP280;56612;52.030;113.524;2023-02-19T03:56:03;93765.09;;;-6.90
69420;BMP280;56612;52.030;113.524;2023-02-19T03:59:12;93764.81;;;-6.79
69420;BMP280;56612;52.030;113.524;2023-02-19T04:02:35;93763.59;;;-6.57
69420;BMP280;56612;52.030;113.524;2023-02-19T04:05:47;93774.41;;;-4.61
69420;BMP280;56612;52.030;113.524;2023-02-19T04:08:59;93768.22;;;-4.17
69420;BMP280;56612;52.030;113.524;2023-02-19T04:12:05;93760.22;;;-5.72
69420;BMP280;56612;52.030;113.524;2023-02-19T04:15:12;93758.28;;;-6.16
69420;BMP280;56612;52.030;113.524;2023-02-19T04:18:21;93750.13;;;-6.56
69420;BMP280;56612;52.030;113.524;2023-02-19T04:21:27;93745.13;;;-6.75
69420;BMP280;56612;52.030;113.524;2023-02-19T04:24:37;93747.41;;;-6.71
69420;BMP280;56612;52.030;113.524;2023-02-19T04:27:43;93750.63;;;-7.20
69420;BMP280;56612;52.030;113.524;2023-02-19T04:30:48;93747.31;;;-7.07
69420;BMP280;56612;52.030;113.524;2023-02-19T04:33:52;93752.72;;;-6.77
69420;BMP280;56612;52.030;113.524;2023-02-19T04:36:56;93757.88;;;-6.84
69420;BMP280;56612;52.030;113.524;2023-02-19T04:40:00;93758.41;;;-6.86
69420;BMP280;56612;52.030;113.524;2023-02-19T04:43:04;93758.50;;;-6.91
69420;BMP280;56612;52.030;113.524;2023-02-19T04:46:08;93764.50;;;-6.76
69420;BMP280;56612;52.030;113.524;2023-02-19T04:49:12;93756.97;;;-6.66
69420;BMP280;56612;52.030;113.524;2023-02-19T04:52:15;93763.28;;;-6.54
69420;BMP280;56612;52.030;113.524;2023-02-19T04:55:19;93758.69;;;-6.40
69420;BMP280;56612;52.030;113.524;2023-02-19T04:58:22;93755.84;;;-6.21
69420;BMP280;56612;52.030;113.524;2023-02-19T05:01:26;93759.19;;;-6.13
69420;BMP280;56612;52.030;113.524;2023-02-19T05:04:29;93762.31;;;-6.07
69420;BMP280;56612;52.030;113.524;2023-02-19T05:07:34;93765.56;;;-5.78
69420;BMP280;56612;52.030;113.524;2023-02-19T05:10:37;93754.69;;;-5.61
69420;BMP280;56612;52.030;113.524;2023-02-19T05:13:40;93766.19;;;-5.34
69420;BMP280;56612;52.030;113.524;2023-02-19T05:16:43;93772.84;;;-5.02
69420;BMP280;56612;52.030;113.524;2023-02-19T05:19:47;93770.09;;;-4.89
69420;BMP280;56612;52.030;113.524;2023-02-19T05:22:50;93769.91;;;-4.91
69420;BMP280;56612;52.030;113.524;2023-02-19T05:25:53;93769.72;;;-4.85
69420;BMP280;56612;52.030;113.524;2023-02-19T05:28:56;93767.50;;;-4.89
69420;BMP280;56612;52.030;113.524;2023-02-19T05:32:00;93768.88;;;-4.57
69420;BMP280;56612;52.030;113.524;2023-02-19T05:35:04;93768.13;;;-4.42
69420;BMP280;56612;52.030;113.524;2023-02-19T05:38:08;93766.91;;;-4.34
69420;BMP280;56612;52.030;113.524;2023-02-19T05:41:13;93777.97;;;-4.10
69420;BMP280;56612;52.030;113.524;2023-02-19T05:44:17;93782.41;;;-3.48
69420;BMP280;56612;52.030;113.524;2023-02-19T05:47:21;93787.47;;;-3.50
69420;BMP280;56612;52.030;113.524;2023-02-19T05:50:25;93783.91;;;-3.37
69420;BMP280;56612;52.030;113.524;2023-02-19T05:53:30;93785.00;;;-3.40
69420;BMP280;56612;52.030;113.524;2023-02-19T05:56:35;93787.03;;;-3.31
69420;BMP280;56612;52.030;113.524;2023-02-19T05:59:39;93786.28;;;-3.24
69420;BMP280;56612;52.030;113.524;2023-02-19T06:02:42;93788.75;;;-3.01
69420;BMP280;56612;52.030;113.524;2023-02-19T06:05:46;93797.63;;;-1.85
69420;BMP280;56612;52.030;113.524;2023-02-19T06:08:50;93799.59;;;-1.93
69420;BMP280;56612;52.030;113.524;2023-02-19T06:11:53;93800.09;;;-0.87
69420;BMP280;56612;52.030;113.524;2023-02-19T06:14:57;93806.59;;;1.20
69420;BMP280;56612;52.030;113.524;2023-02-19T06:18:00;93793.28;;;-0.14
69420;BMP280;56612;52.030;113.524;2023-02-19T06:21:06;93799.50;;;-1.14
69420;BMP280;56612;52.030;113.524;2023-02-19T06:24:10;93801.88;;;-2.24
69420;BMP280;56612;52.030;113.524;2023-02-19T06:27:14;93797.41;;;-2.91
69420;BMP280;56612;52.030;113.524;2023-02-19T06:30:18;93796.69;;;-3.16
69420;BMP280;56612;52.030;113.524;2023-02-19T06:33:22;93795.09;;;-2.87
69420;BMP280;56612;52.030;113.524;2023-02-19T06:36:26;93799.16;;;-2.34
69420;BMP280;56612;52.030;113.524;2023-02-19T06:39:30;93804.78;;;-1.85
69420;BMP280;56612;52.030;113.524;2023-02-19T06:42:33;93800.25;;;-2.19
69420;BMP280;56612;52.030;113.524;2023-02-19T06:45:38;93790.38;;;-2.46
69420;BMP280;56612;52.030;113.524;2023-02-19T06:48:43;93815.69;;;-1.79
69420;BMP280;56612;52.030;113.524;2023-02-19T06:51:46;93827.84;;;2.89
69420;BMP280;56612;52.030;113.524;2023-02-19T06:54:50;93828.69;;;6.58
69420;BMP280;56612;52.030;113.524;2023-02-19T06:57:54;93835.53;;;6.63
69420;BMP280;56612;52.030;113.524;2023-02-19T07:00:57;93844.16;;;6.32
69420;BMP280;56612;52.030;113.524;2023-02-19T07:04:01;93837.38;;;5.68
69420;BMP280;56612;52.030;113.524;2023-02-19T07:07:05;93841.50;;;3.95
69420;BMP280;56612;52.030;113.524;2023-02-19T07:10:09;93835.97;;;3.05
69420;BMP280;56612;52.030;113.524;2023-02-19T07:13:12;93837.75;;;0.82
69420;BMP280;56612;52.030;113.524;2023-02-19T07:16:16;93834.88;;;0.28
69420;BMP280;56612;52.030;113.524;2023-02-19T07:19:19;93829.84;;;-0.65
69420;BMP280;56612;52.030;113.524;2023-02-19T07:22:23;93831.66;;;-1.13
69420;BMP280;56612;52.030;113.524;2023-02-19T07:25:26;93842.63;;;-1.52
69420;BMP280;56612;52.030;113.524;2023-02-19T07:28:30;93836.91;;;-1.58
69420;BMP280;56612;52.030;113.524;2023-02-19T07:31:33;93847.03;;;-1.89
69420;BMP280;56612;52.030;113.524;2023-02-19T07:34:37;93848.84;;;-2.26
69420;BMP280;56612;52.030;113.524;2023-02-19T07:37:40;93851.94;;;-1.85
69420;BMP280;56612;52.030;113.524;2023-02-19T07:40:53;93861.78;;;-1.32
69420;BMP280;56612;52.030;113.524;2023-02-19T07:43:57;93863.06;;;0.37
69420;BMP280;56612;52.030;113.524;2023-02-19T07:47:01;93870.50;;;1.84
69420;BMP280;56612;52.030;113.524;2023-02-19T07:50:05;93858.13;;;1.44
69420;BMP280;56612;52.030;113.524;2023-02-19T07:53:09;93846.88;;;-1.02
69420;BMP280;56612;52.030;113.524;2023-02-19T07:56:13;93854.56;;;-1.85
69420;BMP280;56612;52.030;113.524;2023-02-19T07:59:16;93864.63;;;-1.64
69420;BMP280;56612;52.030;113.524;2023-02-19T08:02:23;93855.09;;;-1.42
69420;BMP280;56612;52.030;113.524;2023-02-19T08:05:46;93870.56;;;-2.41
69420;BMP280;56612;52.030;113.524;2023-02-19T08:08:51;93873.09;;;-2.75
69420;BMP280;56612;52.030;113.524;2023-02-19T08:11:59;93869.53;;;-3.13
69420;BMP280;56612;52.030;113.524;2023-02-19T08:15:21;93883.50;;;-0.85
69420;BMP280;56612;52.030;113.524;2023-02-19T08:18:26;93889.22;;;0.45
69420;BMP280;56612;52.030;113.524;2023-02-19T08:21:29;93890.34;;;0.92
69420;BMP280;56612;52.030;113.524;2023-02-19T08:24:36;93890.97;;;3.20
69420;BMP280;56612;52.030;113.524;2023-02-19T08:27:43;93887.50;;;0.78
69420;BMP280;56612;52.030;113.524;2023-02-19T08:30:47;93886.34;;;-0.08
69420;BMP280;56612;52.030;113.524;2023-02-19T08:33:50;93892.59;;;-1.84
69420;BMP280;56612;52.030;113.524;2023-02-19T08:36:53;93890.66;;;-2.93
69420;BMP280;56612;52.030;113.524;2023-02-19T08:39:56;93893.19;;;-2.28
69420;BMP280;56612;52.030;113.524;2023-02-19T08:43:08;93903.22;;;-2.92
69420;BMP280;56612;52.030;113.524;2023-02-19T08:46:12;93905.78;;;-3.64
69420;BMP280;56612;52.030;113.524;2023-02-19T08:49:16;93903.94;;;-4.33
69420;BMP280;56612;52.030;113.524;2023-02-19T08:52:19;93910.03;;;-4.53
69420;BMP280;56612;52.030;113.524;2023-02-19T08:55:23;93913.31;;;-4.30
69420;BMP280;56612;52.030;113.524;2023-02-19T08:58:26;93919.88;;;-2.79
69420;BMP280;56612;52.030;113.524;2023-02-19T09:01:30;93924.50;;;-0.53
69420;BMP280;56612;52.030;113.524;2023-02-19T09:04:34;93938.91;;;1.51
69420;BMP280;56612;52.030;113.524;2023-02-19T09:07:40;93938.28;;;1.62
69420;BMP280;56612;52.030;113.524;2023-02-19T09:10:43;93929.75;;;-0.16
69420;BMP280;56612;52.030;113.524;2023-02-19T09:13:47;93934.44;;;-0.61
69420;BMP280;56612;52.030;113.524;2023-02-19T09:16:50;93934.47;;;-0.51
69420;BMP280;56612;52.030;113.524;2023-02-19T09:19:54;93931.81;;;-0.61
69420;BMP280;56612;52.030;113.524;2023-02-19T09:22:58;93927.75;;;-2.12
69420;BMP280;56612;52.030;113.524;2023-02-19T09:26:04;93942.59;;;-2.90
69420;BMP280;56612;52.030;113.524;2023-02-19T09:29:10;93940.88;;;-3.50
69420;BMP280;56612;52.030;113.524;2023-02-19T09:32:13;93936.97;;;-4.43
69420;BMP280;56612;52.030;113.524;2023-02-19T09:35:20;93937.56;;;-4.96
69420;BMP280;56612;52.030;113.524;2023-02-19T09:38:24;93936.88;;;-5.33
69420;BMP280;56612;52.030;113.524;2023-02-19T09:41:33;93945.09;;;-5.57
69420;BMP280;56612;52.030;113.524;2023-02-19T09:44:39;93948.09;;;-5.81
69420;BMP280;56612;52.030;113.524;2023-02-19T09:47:45;93949.56;;;-6.15
69420;BMP280;56612;52.030;113.524;2023-02-19T09:50:49;93956.84;;;-6.34
69420;BMP280;56612;52.030;113.524;2023-02-19T09:53:54;93963.44;;;-6.33
69420;BMP280;56612;52.030;113.524;2023-02-19T09:57:02;93964.84;;;-6.32
69420;BMP280;56612;52.030;113.524;2023-02-19T10:00:53;93965.28;;;-6.41
69420;BMP280;56612;52.030;113.524;2023-02-19T10:03:39;93973.94;;;-6.59
69420;BMP280;56612;52.030;113.524;2023-02-19T10:06:45;93980.69;;;-6.77
69420;BMP280;56612;52.030;113.524;2023-02-19T10:09:58;93974.72;;;-6.85
69420;BMP280;56612;52.030;113.524;2023-02-19T10:13:21;93973.53;;;-6.98
69420;BMP280;56612;52.030;113.524;2023-02-19T10:16:27;93979.13;;;-7.07
69420;BMP280;56612;52.030;113.524;2023-02-19T10:19:32;93979.03;;;-7.14
69420;BMP280;56612;52.030;113.524;2023-02-19T10:22:37;93986.81;;;-7.28
69420;BMP280;56612;52.030;113.524;2023-02-19T10:25:49;93984.44;;;-7.39
69420;BMP280;56612;52.030;113.524;2023-02-19T10:28:53;93988.09;;;-7.48
69420;BMP280;56612;52.030;113.524;2023-02-19T10:32:14;93992.19;;;-7.52
69420;BMP280;56612;52.030;113.524;2023-02-19T10:35:20;93995.88;;;-7.61
69420;BMP280;56612;52.030;113.524;2023-02-19T10:38:29;93992.88;;;-7.78
69420;BMP280;56612;52.030;113.524;2023-02-19T10:41:39;94000.69;;;-7.84
69420;BMP280;56612;52.030;113.524;2023-02-19T10:44:56;94003.66;;;-7.93
69420;BMP280;56612;52.030;113.524;2023-02-19T10:48:05;93997.94;;;-8.05
69420;BMP280;56612;52.030;113.524;2023-02-19T10:51:10;93993.88;;;-8.13
69420;BMP280;56612;52.030;113.524;2023-02-19T11:00:32;94015.16;;;-8.39
69420;BMP280;56612;52.030;113.524;2023-02-19T11:03:36;94016.41;;;-8.46
69420;BMP280;56612;52.030;113.524;2023-02-19T11:06:40;94028.59;;;-8.60
69420;BMP280;56612;52.030;113.524;2023-02-19T11:09:45;94025.84;;;-8.67
69420;BMP280;56612;52.030;113.524;2023-02-19T11:12:50;94031.88;;;-8.78
69420;BMP280;56612;52.030;113.524;2023-02-19T11:15:56;94025.38;;;-8.85
69420;BMP280;56612;52.030;113.524;2023-02-19T11:19:00;94040.44;;;-8.83
69420;BMP280;56612;52.030;113.524;2023-02-19T11:22:34;94045.09;;;-8.82
69420;BMP280;56612;52.030;113.524;2023-02-19T11:25:49;94039.44;;;-8.80
69420;BMP280;56612;52.030;113.524;2023-02-19T11:28:56;94042.56;;;-8.87
69420;BMP280;56612;52.030;113.524;2023-02-19T11:32:24;94045.44;;;-8.91
69420;BMP280;56612;52.030;113.524;2023-02-19T11:35:28;94042.47;;;-9.00
69420;BMP280;56612;52.030;113.524;2023-02-19T11:38:32;94058.28;;;-9.04
69420;BMP280;56612;52.030;113.524;2023-02-19T11:45:26;94057.22;;;-9.14
69420;BMP280;56612;52.030;113.524;2023-02-19T11:48:55;94054.50;;;-9.27
69420;BMP280;56612;52.030;113.524;2023-02-19T11:59:38;94069.41;;;-9.39
69420;BMP280;56612;52.030;113.524;2023-02-19T12:09:28;94071.41;;;-9.57
69420;BMP280;56612;52.030;113.524;2023-02-19T12:16:08;94081.09;;;-9.63
69420;BMP280;56612;52.030;113.524;2023-02-19T12:39:42;94108.78;;;-9.93
69420;BMP280;56612;52.030;113.524;2023-02-19T12:42:52;94106.00;;;-10.01
69420;BMP280;56612;52.030;113.524;2023-02-19T12:52:27;94112.91;;;-10.26
69420;BMP280;56612;52.030;113.524;2023-02-19T12:55:41;94111.31;;;-10.29
69420;BMP280;56612;52.030;113.524;2023-02-19T12:58:57;94129.88;;;-10.36
69420;BMP280;56612;52.030;113.524;2023-02-19T13:02:18;94128.75;;;-10.52
69420;BMP280;56612;52.030;113.524;2023-02-19T13:08:47;94140.72;;;-10.66
69420;BMP280;56612;52.030;113.524;2023-02-19T13:12:17;94140.97;;;-10.69
69420;BMP280;56612;52.030;113.524;2023-02-19T13:15:29;94146.16;;;-10.69
69420;BMP280;56612;52.030;113.524;2023-02-19T13:18:52;94154.13;;;-10.78
69420;BMP280;56612;52.030;113.524;2023-02-19T13:22:55;94144.97;;;-10.85
69420;BMP280;56612;52.030;113.524;2023-02-19T13:36:23;94169.84;;;-11.04
69420;BMP280;56612;52.030;113.524;2023-02-19T13:39:28;94181.59;;;-11.03
69420;BMP280;56612;52.030;113.524;2023-02-19T13:42:34;94179.47;;;-11.11
69420;BMP280;56612;52.030;113.524;2023-02-19T13:45:42;94174.31;;;-11.11
69420;BMP280;56612;52.030;113.524;2023-02-19T13:48:46;94170.56;;;-11.15
69420;BMP280;56612;52.030;113.524;2023-02-19T13:58:59;94191.88;;;-11.20
69420;BMP280;56612;52.030;113.524;2023-02-19T14:05:57;94187.44;;;-11.25
69420;BMP280;56612;52.030;113.524;2023-02-19T14:09:01;94201.25;;;-11.28
69420;BMP280;56612;52.030;113.524;2023-02-19T14:15:38;94206.44;;;-11.34
69420;BMP280;56612;52.030;113.524;2023-02-19T14:18:44;94206.88;;;-11.41
69420;BMP280;56612;52.030;113.524;2023-02-19T14:21:48;94204.50;;;-11.50
69420;BMP280;56612;52.030;113.524;2023-02-19T14:24:52;94199.81;;;-11.57
69420;BMP280;56612;52.030;113.524;2023-02-19T14:34:32;94212.41;;;-11.59
69420;BMP280;56612;52.030;113.524;2023-02-19T14:37:37;94215.00;;;-11.59
69420;BMP280;56612;52.030;113.524;2023-02-19T14:40:41;94219.44;;;-11.60
69420;BMP280;56612;52.030;113.524;2023-02-19T14:43:48;94227.16;;;-11.66
69420;BMP280;56612;52.030;113.524;2023-02-19T14:47:03;94228.59;;;-11.65
69420;BMP280;56612;52.030;113.524;2023-02-19T14:50:12;94229.06;;;-11.66
69420;BMP280;56612;52.030;113.524;2023-02-19T14:53:18;94225.28;;;-11.76
69420;BMP280;56612;52.030;113.524;2023-02-19T14:56:25;94235.59;;;-11.71
69420;BMP280;56612;52.030;113.524;2023-02-19T14:59:30;94240.28;;;-11.69
69420;BMP280;56612;52.030;113.524;2023-02-19T15:02:41;94251.28;;;-11.69
69420;BMP280;56612;52.030;113.524;2023-02-19T15:05:44;94258.78;;;-11.76
69420;BMP280;56612;52.030;113.524;2023-02-19T15:08:52;94260.41;;;-11.79
69420;BMP280;56612;52.030;113.524;2023-02-19T15:11:57;94262.94;;;-11.84
69420;BMP280;56612;52.030;113.524;2023-02-19T15:15:03;94268.34;;;-11.88
69420;BMP280;56612;52.030;113.524;2023-02-19T15:18:19;94264.75;;;-11.96
69420;BMP280;56612;52.030;113.524;2023-02-19T15:21:26;94269.63;;;-12.04
69420;BMP280;56612;52.030;113.524;2023-02-19T15:24:29;94270.56;;;-12.07
69420;BMP280;56612;52.030;113.524;2023-02-19T15:27:32;94280.78;;;-12.18
69420;BMP280;56612;52.030;113.524;2023-02-19T15:30:37;94275.09;;;-12.28
69420;BMP280;56612;52.030;113.524;2023-02-19T15:33:49;94277.91;;;-12.26
69420;BMP280;56612;52.030;113.524;2023-02-19T15:36:58;94276.50;;;-12.27
69420;BMP280;56612;52.030;113.524;2023-02-19T15:40:05;94284.72;;;-12.28
69420;BMP280;56612;52.030;113.524;2023-02-19T15:43:21;94298.44;;;-12.37
69420;BMP280;56612;52.030;113.524;2023-02-19T15:46:27;94291.13;;;-12.44
69420;BMP280;56612;52.030;113.524;2023-02-19T15:50:04;94296.72;;;-12.51
69420;BMP280;56612;52.030;113.524;2023-02-19T15:53:25;94297.34;;;-12.56
69420;BMP280;56612;52.030;113.524;2023-02-19T15:56:32;94299.22;;;-12.57
69420;BMP280;56612;52.030;113.524;2023-02-19T15:59:40;94296.84;;;-12.60
69420;BMP280;56612;52.030;113.524;2023-02-19T16:02:46;94305.47;;;-12.64
69420;BMP280;56612;52.030;113.524;2023-02-19T16:06:09;94315.97;;;-12.67
69420;BMP280;56612;52.030;113.524;2023-02-19T16:09:21;94321.13;;;-12.67
69420;BMP280;56612;52.030;113.524;2023-02-19T16:12:27;94315.72;;;-12.69
69420;BMP280;56612;52.030;113.524;2023-02-19T16:15:32;94319.47;;;-12.70
69420;BMP280;56612;52.030;113.524;2023-02-19T16:18:36;94324.50;;;-12.81
69420;BMP280;56612;52.030;113.524;2023-02-19T16:21:42;94328.66;;;-12.84
69420;BMP280;56612;52.030;113.524;2023-02-19T16:24:52;94332.28;;;-12.96
69420;BMP280;56612;52.030;113.524;2023-02-19T16:27:56;94333.41;;;-13.03
69420;BMP280;56612;52.030;113.524;2023-02-19T16:31:11;94334.81;;;-13.02
69420;BMP280;56612;52.030;113.524;2023-02-19T16:34:23;94346.72;;;-13.04
69420;BMP280;56612;52.030;113.524;2023-02-19T16:37:37;94347.34;;;-13.09
69420;BMP280;56612;52.030;113.524;2023-02-19T16:43:56;94345.69;;;-13.33
69420;BMP280;56612;52.030;113.524;2023-02-19T16:47:15;94354.09;;;-13.32
69420;BMP280;56612;52.030;113.524;2023-02-19T16:50:22;94363.22;;;-13.31
69420;BMP280;56612;52.030;113.524;2023-02-19T16:53:27;94345.41;;;-13.35
69420;BMP280;56612;52.030;113.524;2023-02-19T16:56:31;94365.53;;;-13.33
69420;BMP280;56612;52.030;113.524;2023-02-19T16:59:35;94373.13;;;-13.45
69420;BMP280;56612;52.030;113.524;2023-02-19T17:02:39;94372.09;;;-13.47
69420;BMP280;56612;52.030;113.524;2023-02-19T17:05:42;94374.69;;;-13.47
69420;BMP280;56612;52.030;113.524;2023-02-19T17:08:46;94375.94;;;-13.43
69420;BMP280;56612;52.030;113.524;2023-02-19T17:11:50;94384.59;;;-13.40
69420;BMP280;56612;52.030;113.524;2023-02-19T17:14:53;94381.53;;;-13.44
69420;BMP280;56612;52.030;113.524;2023-02-19T17:17:57;94384.09;;;-13.44
69420;BMP280;56612;52.030;113.524;2023-02-19T17:24:10;94388.31;;;-13.41
69420;BMP280;56612;52.030;113.524;2023-02-19T17:27:13;94384.56;;;-13.46
69420;BMP280;56612;52.030;113.524;2023-02-19T17:30:29;94392.97;;;-13.45
69420;BMP280;56612;52.030;113.524;2023-02-19T17:33:33;94395.25;;;-13.47
69420;BMP280;56612;52.030;113.524;2023-02-19T17:36:37;94384.97;;;-13.47
69420;BMP280;56612;52.030;113.524;2023-02-19T17:39:41;94394.53;;;-13.48
69420;BMP280;56612;52.030;113.524;2023-02-19T17:42:45;94400.06;;;-13.55
69420;BMP280;56612;52.030;113.524;2023-02-19T17:45:49;94387.81;;;-13.60
69420;BMP280;56612;52.030;113.524;2023-02-19T17:48:54;94393.53;;;-13.71
69420;BMP280;56612;52.030;113.524;2023-02-19T17:51:57;94398.25;;;-13.84
69420;BMP280;56612;52.030;113.524;2023-02-19T17:55:01;94396.75;;;-13.91
69420;BMP280;56612;52.030;113.524;2023-02-19T17:58:05;94396.00;;;-13.91
69420;BMP280;56612;52.030;113.524;2023-02-19T18:01:08;94392.84;;;-13.86
69420;BMP280;56612;52.030;113.524;2023-02-19T18:04:12;94402.47;;;-13.81
69420;BMP280;56612;52.030;113.524;2023-02-19T18:07:16;94396.03;;;-13.76
69420;BMP280;56612;52.030;113.524;2023-02-19T18:10:21;94410.75;;;-13.77
69420;BMP280;56612;52.030;113.524;2023-02-19T18:13:28;94405.16;;;-13.90
69420;BMP280;56612;52.030;113.524;2023-02-19T18:16:31;94396.09;;;-14.00
69420;BMP280;56612;52.030;113.524;2023-02-19T18:19:35;94402.91;;;-14.12
69420;BMP280;56612;52.030;113.524;2023-02-19T18:22:40;94404.44;;;-14.20
69420;BMP280;56612;52.030;113.524;2023-02-19T18:25:45;94407.88;;;-14.38
69420;BMP280;56612;52.030;113.524;2023-02-19T18:28:49;94414.16;;;-14.39
69420;BMP280;56612;52.030;113.524;2023-02-19T18:31:53;94411.94;;;-14.46
69420;BMP280;56612;52.030;113.524;2023-02-19T18:34:57;94414.22;;;-14.48
69420;BMP280;56612;52.030;113.524;2023-02-19T18:38:02;94418.28;;;-14.56
69420;BMP280;56612;52.030;113.524;2023-02-19T18:41:10;94414.53;;;-14.55
69420;BMP280;56612;52.030;113.524;2023-02-19T18:44:22;94415.41;;;-14.58
69420;BMP280;56612;52.030;113.524;2023-02-19T18:47:26;94410.28;;;-14.58
69420;BMP280;56612;52.030;113.524;2023-02-19T18:50:29;94401.47;;;-14.57
69420;BMP280;56612;52.030;113.524;2023-02-19T18:53:32;94406.03;;;-14.62
69420;BMP280;56612;52.030;113.524;2023-02-19T18:56:40;94411.50;;;-14.69
69420;BMP280;56612;52.030;113.524;2023-02-19T18:59:43;94404.16;;;-14.76
69420;BMP280;56612;52.030;113.524;2023-02-19T19:02:47;94407.00;;;-14.83
69420;BMP280;56612;52.030;113.524;2023-02-19T19:05:52;94404.09;;;-14.91
69420;BMP280;56612;52.030;113.524;2023-02-19T19:08:56;94416.78;;;-14.96
69420;BMP280;56612;52.030;113.524;2023-02-19T19:12:03;94409.25;;;-15.24
69420;BMP280;56612;52.030;113.524;2023-02-19T19:15:06;94420.41;;;-15.36
69420;BMP280;56612;52.030;113.524;2023-02-19T19:18:10;94427.25;;;-15.33
69420;BMP280;56612;52.030;113.524;2023-02-19T19:21:14;94436.34;;;-15.32
69420;BMP280;56612;52.030;113.524;2023-02-19T19:24:18;94428.25;;;-15.40
69420;BMP280;56612;52.030;113.524;2023-02-19T19:27:21;94425.72;;;-15.58